Date,TemperatureHighF,TemperatureAvgF,TemperatureLowF,DewpointHighF,DewpointAvgF,DewpointLowF,HumidityHigh,HumidityAvg,HumidityLow,PressureMaxIn,PressureMinIn,WindSpeedMaxMPH,WindSpeedAvgMPH,GustSpeedMaxMPH,PrecipitationSumIn
2013-1-1,37.4,34.2,28.7,34.3,30.7,25.5,93,87,77,29.50,29.16,5,2,14,0.00
2013-1-2,36.8,32.9,28.7,32.1,30.1,27.0,96,90,79,29.48,29.43,2,1,7,0.00
2013-1-3,37.9,36.4,30.7,32.7,31.4,28.1,90,82,77,29.56,29.44,4,2,10,0.00
2013-1-4,30.7,27.8,23.4,29.5,26.7,22.4,98,96,90,29.81,29.56,1,0,3,0.00
2013-1-5,33.4,30.3,25.9,29.0,27.3,25.2,98,89,82,29.71,29.26,3,1,7,0.00
2013-1-6,34.4,30.8,27.8,30.4,28.2,24.9,95,90,84,29.33,28.99,2,1,5,0.00
2013-1-7,31.9,30.0,25.5,30.9,27.0,21.6,97,89,80,29.27,29.01,2,1,7,0.00
2013-1-8,18.7,15.6,12.8,16.8,14.2,11.0,96,94,92,30.00,29.85,2,1,3,0.00
2013-1-9,18.2,11.8,7.0,17.0,10.2,4.7,95,93,89,30.09,29.94,1,0,2,0.00
2013-1-10,24.4,22.1,18.2,23.4,21.1,17.0,97,96,95,30.16,29.94,1,0,3,0.00
2013-1-11,28.1,25.9,23.2,27.4,25.0,22.1,97,96,95,30.14,29.89,2,0,6,0.00
2013-1-12,35.2,30.2,23.3,35.1,29.9,22.6,100,99,97,30.12,29.80,1,0,2,0.00
2013-1-13,37.5,35.7,34.3,37.5,35.7,34.3,100,100,100,29.88,29.60,2,0,3,0.00
2013-1-14,39.5,35.7,29.5,38.6,33.2,21.6,100,91,71,29.97,29.49,3,1,14,0.00
2013-1-15,30.7,27.5,24.8,23.3,21.2,17.2,89,77,65,30.21,29.97,3,1,12,0.00
2013-1-16,26.5,23.4,21.5,23.4,21.5,20.2,97,92,83,30.18,29.69,1,0,4,0.00
2013-1-17,21.8,17.7,10.1,21.1,16.1,7.2,97,93,88,29.95,29.62,1,0,2,0.00
2013-1-18,14.5,8.1,-0.9,12.2,5.8,-3.4,94,90,88,30.23,29.95,1,0,5,0.00
2013-1-19,24.7,18.2,12.7,22.1,15.8,10.4,92,90,88,30.24,29.91,3,1,10,0.00
2013-1-20,30.8,28.1,22.5,29.5,27.0,21.5,97,96,93,29.88,29.82,2,1,8,0.00
2013-1-21,33.0,26.0,19.0,29.6,24.1,17.8,99,92,87,29.89,29.65,2,1,7,0.00
2013-1-26,-5.6,-8.5,-10.1,-10.9,-12.6,-14.1,86,81,77,29.92,29.77,1,1,2,0.00
2013-1-27,2.7,-8.4,-14.2,-5.7,-14.7,-18.1,86,74,54,30.19,29.92,1,0,4,0.00
2013-1-28,-3.9,-9.0,-13.1,-11.0,-14.8,-18.6,81,75,70,30.22,30.15,2,1,3,0.00